sensor_id;sensor_type;location;lat;lon;timestamp;temperature;humidity
81842;DHT22;71284;50.918;7.092;2023-07-08T00:01:58;24.00;41.40
81842;DHT22;71284;50.918;7.092;2023-07-08T00:04:25;23.70;41.30
81842;DHT22;71284;50.918;7.092;2023-07-08T00:06:51;23.70;40.80
81842;DHT22;71284;50.918;7.092;2023-07-08T00:09:18;23.70;40.30
81842;DHT22;71284;50.918;7.092;2023-07-08T00:11:44;23.70;41.60
81842;DHT22;71284;50.918;7.092;2023-07-08T00:14:11;23.60;41.20
81842;DHT22;71284;50.918;7.092;2023-07-08T00:16:37;23.60;42.30
81842;DHT22;71284;50.918;7.092;2023-07-08T00:19:07;23.50;42.30
81842;DHT22;71284;50.918;7.092;2023-07-08T00:21:31;23.40;42.90
81842;DHT22;71284;50.918;7.092;2023-07-08T00:23:57;23.40;43.00
81842;DHT22;71284;50.918;7.092;2023-07-08T00:26:25;23.30;43.00
81842;DHT22;71284;50.918;7.092;2023-07-08T00:28:51;23.20;43.50
81842;DHT22;71284;50.918;7.092;2023-07-08T00:31:18;23.20;43.80
81842;DHT22;71284;50.918;7.092;2023-07-08T00:33:44;23.10;43.70
81842;DHT22;71284;50.918;7.092;2023-07-08T00:36:11;23.00;44.00
81842;DHT22;71284;50.918;7.092;2023-07-08T00:38:38;23.00;44.40
81842;DHT22;71284;50.918;7.092;2023-07-08T00:41:06;23.00;44.30
81842;DHT22;71284;50.918;7.092;2023-07-08T00:43:43;23.00;44.00
81842;DHT22;71284;50.918;7.092;2023-07-08T00:46:17;23.00;43.30
81842;DHT22;71284;50.918;7.092;2023-07-08T00:48:40;22.90;43.90
81842;DHT22;71284;50.918;7.092;2023-07-08T00:51:08;22.80;43.60
81842;DHT22;71284;50.918;7.092;2023-07-08T00:53:35;22.80;43.00
81842;DHT22;71284;50.918;7.092;2023-07-08T00:56:13;22.70;44.20
81842;DHT22;71284;50.918;7.092;2023-07-08T00:58:43;22.80;43.80
81842;DHT22;71284;50.918;7.092;2023-07-08T01:01:08;22.60;43.80
81842;DHT22;71284;50.918;7.092;2023-07-08T01:03:36;22.50;43.90
81842;DHT22;71284;50.918;7.092;2023-07-08T01:06:02;22.50;43.80
81842;DHT22;71284;50.918;7.092;2023-07-08T01:08:28;22.50;44.10
81842;DHT22;71284;50.918;7.092;2023-07-08T01:10:57;22.40;44.40
81842;DHT22;71284;50.918;7.092;2023-07-08T01:13:21;22.40;44.10
81842;DHT22;71284;50.918;7.092;2023-07-08T01:15:48;22.30;43.90
81842;DHT22;71284;50.918;7.092;2023-07-08T01:18:16;22.30;44.10
81842;DHT22;71284;50.918;7.092;2023-07-08T01:20:43;22.40;44.00
81842;DHT22;71284;50.918;7.092;2023-07-08T01:23:10;22.30;44.30
81842;DHT22;71284;50.918;7.092;2023-07-08T01:25:36;22.30;44.30
81842;DHT22;71284;50.918;7.092;2023-07-08T01:28:03;22.30;44.90
81842;DHT22;71284;50.918;7.092;2023-07-08T01:30:29;22.30;44.90
81842;DHT22;71284;50.918;7.092;2023-07-08T01:32:59;22.30;44.70
81842;DHT22;71284;50.918;7.092;2023-07-08T01:35:22;22.20;44.70
81842;DHT22;71284;50.918;7.092;2023-07-08T01:37:51;22.20;45.00
81842;DHT22;71284;50.918;7.092;2023-07-08T01:40:22;22.20;45.10
81842;DHT22;71284;50.918;7.092;2023-07-08T01:42:43;22.20;45.00
81842;DHT22;71284;50.918;7.092;2023-07-08T01:45:12;22.20;44.90
81842;DHT22;71284;50.918;7.092;2023-07-08T01:47:39;22.10;45.10
81842;DHT22;71284;50.918;7.092;2023-07-08T01:50:05;22.00;45.30
81842;DHT22;71284;50.918;7.092;2023-07-08T01:52:32;22.00;45.20
81842;DHT22;71284;50.918;7.092;2023-07-08T01:54:58;22.00;46.20
81842;DHT22;71284;50.918;7.092;2023-07-08T01:57:25;21.90;46.20
81842;DHT22;71284;50.918;7.092;2023-07-08T01:59:51;21.80;46.30
81842;DHT22;71284;50.918;7.092;2023-07-08T02:02:18;21.80;46.60
81842;DHT22;71284;50.918;7.092;2023-07-08T02:04:45;21.80;46.50
81842;DHT22;71284;50.918;7.092;2023-07-08T02:07:11;21.90;46.50
81842;DHT22;71284;50.918;7.092;2023-07-08T02:09:38;21.80;46.50
81842;DHT22;71284;50.918;7.092;2023-07-08T02:12:05;21.70;46.20
81842;DHT22;71284;50.918;7.092;2023-07-08T02:14:31;21.70;46.50
81842;DHT22;71284;50.918;7.092;2023-07-08T02:16:58;21.70;46.20
81842;DHT22;71284;50.918;7.092;2023-07-08T02:19:25;21.70;46.30
81842;DHT22;71284;50.918;7.092;2023-07-08T02:21:51;21.60;46.70
81842;DHT22;71284;50.918;7.092;2023-07-08T02:24:19;21.50;46.80
81842;DHT22;71284;50.918;7.092;2023-07-08T02:26:45;21.50;46.90
81842;DHT22;71284;50.918;7.092;2023-07-08T02:29:12;21.50;46.90
81842;DHT22;71284;50.918;7.092;2023-07-08T02:31:39;21.60;46.90
81842;DHT22;71284;50.918;7.092;2023-07-08T02:34:05;21.50;47.70
81842;DHT22;71284;50.918;7.092;2023-07-08T02:36:33;21.50;47.50
81842;DHT22;71284;50.918;7.092;2023-07-08T02:38:59;21.40;47.60
81842;DHT22;71284;50.918;7.092;2023-07-08T02:41:25;21.40;47.40
81842;DHT22;71284;50.918;7.092;2023-07-08T02:43:52;21.40;47.70
81842;DHT22;71284;50.918;7.092;2023-07-08T02:46:18;21.30;47.90
81842;DHT22;71284;50.918;7.092;2023-07-08T02:48:45;21.30;48.00
81842;DHT22;71284;50.918;7.092;2023-07-08T02:51:12;21.30;48.20
81842;DHT22;71284;50.918;7.092;2023-07-08T02:53:38;21.20;48.40
81842;DHT22;71284;50.918;7.092;2023-07-08T02:56:05;21.20;48.20
81842;DHT22;71284;50.918;7.092;2023-07-08T02:58:31;21.20;48.30
81842;DHT22;71284;50.918;7.092;2023-07-08T03:00:58;21.10;48.30
81842;DHT22;71284;50.918;7.092;2023-07-08T03:03:26;21.10;48.50
81842;DHT22;71284;50.918;7.092;2023-07-08T03:05:55;21.00;48.40
81842;DHT22;71284;50.918;7.092;2023-07-08T03:08:21;20.90;48.70
81842;DHT22;71284;50.918;7.092;2023-07-08T03:10:53;20.80;49.00
81842;DHT22;71284;50.918;7.092;2023-07-08T03:13:14;20.70;49.10
81842;DHT22;71284;50.918;7.092;2023-07-08T03:15:44;20.70;49.30
81842;DHT22;71284;50.918;7.092;2023-07-08T03:18:08;20.70;48.90
81842;DHT22;71284;50.918;7.092;2023-07-08T03:20:34;20.60;49.20
81842;DHT22;71284;50.918;7.092;2023-07-08T03:23:01;20.60;49.40
81842;DHT22;71284;50.918;7.092;2023-07-08T03:25:27;20.50;49.40
81842;DHT22;71284;50.918;7.092;2023-07-08T03:27:54;20.50;49.40
81842;DHT22;71284;50.918;7.092;2023-07-08T03:30:21;20.50;49.40
81842;DHT22;71284;50.918;7.092;2023-07-08T03:32:47;20.50;49.40
81842;DHT22;71284;50.918;7.092;2023-07-08T03:35:14;20.50;49.00
81842;DHT22;71284;50.918;7.092;2023-07-08T03:37:41;20.60;49.10
81842;DHT22;71284;50.918;7.092;2023-07-08T03:40:08;20.50;49.60
81842;DHT22;71284;50.918;7.092;2023-07-08T03:42:34;20.50;49.80
81842;DHT22;71284;50.918;7.092;2023-07-08T03:45:01;20.40;49.80
81842;DHT22;71284;50.918;7.092;2023-07-08T03:47:28;20.40;49.80
81842;DHT22;71284;50.918;7.092;2023-07-08T03:49:54;20.20;49.90
81842;DHT22;71284;50.918;7.092;2023-07-08T03:52:21;20.20;49.80
81842;DHT22;71284;50.918;7.092;2023-07-08T03:54:47;20.20;50.10
81842;DHT22;71284;50.918;7.092;2023-07-08T03:57:14;20.20;50.30
81842;DHT22;71284;50.918;7.092;2023-07-08T03:59:41;20.20;50.10
81842;DHT22;71284;50.918;7.092;2023-07-08T04:02:09;20.20;51.10
81842;DHT22;71284;50.918;7.092;2023-07-08T04:04:34;20.10;51.30
81842;DHT22;71284;50.918;7.092;2023-07-08T04:07:01;20.10;51.30
81842;DHT22;71284;50.918;7.092;2023-07-08T04:09:28;20.20;51.30
81842;DHT22;71284;50.918;7.092;2023-07-08T04:11:54;20.20;51.20
81842;DHT22;71284;50.918;7.092;2023-07-08T04:14:21;20.30;51.10
81842;DHT22;71284;50.918;7.092;2023-07-08T04:16:52;20.40;50.80
81842;DHT22;71284;50.918;7.092;2023-07-08T04:19:18;20.50;50.70
81842;DHT22;71284;50.918;7.092;2023-07-08T04:21:44;20.40;50.90
81842;DHT22;71284;50.918;7.092;2023-07-08T04:24:11;20.50;50.60
81842;DHT22;71284;50.918;7.092;2023-07-08T04:26:38;20.50;51.20
81842;DHT22;71284;50.918;7.092;2023-07-08T04:29:05;20.40;50.90
81842;DHT22;71284;50.918;7.092;2023-07-08T04:31:31;20.50;51.40
81842;DHT22;71284;50.918;7.092;2023-07-08T04:33:57;20.50;50.90
81842;DHT22;71284;50.918;7.092;2023-07-08T04:36:24;20.50;50.90
81842;DHT22;71284;50.918;7.092;2023-07-08T04:38:50;20.60;50.30
81842;DHT22;71284;50.918;7.092;2023-07-08T04:41:17;20.70;50.20
81842;DHT22;71284;50.918;7.092;2023-07-08T04:43:43;20.70;49.80
81842;DHT22;71284;50.918;7.092;2023-07-08T04:46:17;20.80;49.90
81842;DHT22;71284;50.918;7.092;2023-07-08T04:48:39;20.80;50.10
81842;DHT22;71284;50.918;7.092;2023-07-08T04:51:06;20.90;50.30
81842;DHT22;71284;50.918;7.092;2023-07-08T04:53:32;21.00;50.10
81842;DHT22;71284;50.918;7.092;2023-07-08T04:55:59;21.00;50.00
81842;DHT22;71284;50.918;7.092;2023-07-08T04:58:25;21.10;49.60
81842;DHT22;71284;50.918;7.092;2023-07-08T05:00:52;21.30;49.40
81842;DHT22;71284;50.918;7.092;2023-07-08T05:03:19;21.30;49.40
81842;DHT22;71284;50.918;7.092;2023-07-08T05:05:45;21.40;48.90
81842;DHT22;71284;50.918;7.092;2023-07-08T05:08:12;21.50;49.00
81842;DHT22;71284;50.918;7.092;2023-07-08T05:10:39;21.60;48.30
81842;DHT22;71284;50.918;7.092;2023-07-08T05:13:05;21.70;48.10
81842;DHT22;71284;50.918;7.092;2023-07-08T05:15:32;21.80;47.60
81842;DHT22;71284;50.918;7.092;2023-07-08T05:17:58;21.90;47.20
81842;DHT22;71284;50.918;7.092;2023-07-08T05:20:25;22.00;46.90
81842;DHT22;71284;50.918;7.092;2023-07-08T05:22:51;22.00;47.60
81842;DHT22;71284;50.918;7.092;2023-07-08T05:25:18;22.10;47.70
81842;DHT22;71284;50.918;7.092;2023-07-08T05:27:44;22.20;48.10
81842;DHT22;71284;50.918;7.092;2023-07-08T05:30:13;22.20;48.10
81842;DHT22;71284;50.918;7.092;2023-07-08T05:32:38;22.30;48.30
81842;DHT22;71284;50.918;7.092;2023-07-08T05:35:04;22.40;47.90
81842;DHT22;71284;50.918;7.092;2023-07-08T05:37:31;22.50;48.00
81842;DHT22;71284;50.918;7.092;2023-07-08T05:39:58;22.50;48.30
81842;DHT22;71284;50.918;7.092;2023-07-08T05:42:24;22.60;48.20
81842;DHT22;71284;50.918;7.092;2023-07-08T05:44:51;22.60;47.70
81842;DHT22;71284;50.918;7.092;2023-07-08T05:47:17;22.70;47.40
81842;DHT22;71284;50.918;7.092;2023-07-08T05:49:44;22.70;47.70
81842;DHT22;71284;50.918;7.092;2023-07-08T05:52:10;22.80;47.90
81842;DHT22;71284;50.918;7.092;2023-07-08T05:54:37;22.80;48.80
81842;DHT22;71284;50.918;7.092;2023-07-08T05:57:05;22.90;48.90
81842;DHT22;71284;50.918;7.092;2023-07-08T05:59:31;23.00;49.30
81842;DHT22;71284;50.918;7.092;2023-07-08T06:01:58;23.00;48.90
81842;DHT22;71284;50.918;7.092;2023-07-08T06:04:24;23.10;48.80
81842;DHT22;71284;50.918;7.092;2023-07-08T06:06:51;23.20;47.80
81842;DHT22;71284;50.918;7.092;2023-07-08T06:09:17;23.20;45.90
81842;DHT22;71284;50.918;7.092;2023-07-08T06:11:44;23.30;45.10
81842;DHT22;71284;50.918;7.092;2023-07-08T06:14:11;23.30;44.90
81842;DHT22;71284;50.918;7.092;2023-07-08T06:16:37;23.50;44.80
81842;DHT22;71284;50.918;7.092;2023-07-08T06:19:04;23.60;44.40
81842;DHT22;71284;50.918;7.092;2023-07-08T06:21:30;23.70;43.50
81842;DHT22;71284;50.918;7.092;2023-07-08T06:23:57;23.90;42.50
81842;DHT22;71284;50.918;7.092;2023-07-08T06:26:23;24.00;42.50
81842;DHT22;71284;50.918;7.092;2023-07-08T06:28:50;24.10;41.60
81842;DHT22;71284;50.918;7.092;2023-07-08T06:31:17;24.30;40.40
81842;DHT22;71284;50.918;7.092;2023-07-08T06:33:43;24.50;40.30
81842;DHT22;71284;50.918;7.092;2023-07-08T06:36:10;24.70;40.50
81842;DHT22;71284;50.918;7.092;2023-07-08T06:38:36;24.80;40.20
81842;DHT22;71284;50.918;7.092;2023-07-08T06:41:03;25.00;40.70
81842;DHT22;71284;50.918;7.092;2023-07-08T06:43:30;25.10;39.80
81842;DHT22;71284;50.918;7.092;2023-07-08T06:45:56;25.20;40.30
81842;DHT22;71284;50.918;7.092;2023-07-08T06:48:23;25.30;37.50
81842;DHT22;71284;50.918;7.092;2023-07-08T06:50:49;25.40;37.80
81842;DHT22;71284;50.918;7.092;2023-07-08T06:53:16;25.70;38.20
81842;DHT22;71284;50.918;7.092;2023-07-08T06:55:44;25.80;38.00
81842;DHT22;71284;50.918;7.092;2023-07-08T06:58:10;25.90;37.20
81842;DHT22;71284;50.918;7.092;2023-07-08T07:00:36;26.00;38.10
81842;DHT22;71284;50.918;7.092;2023-07-08T07:03:04;26.10;37.90
81842;DHT22;71284;50.918;7.092;2023-07-08T07:05:30;26.20;37.40
81842;DHT22;71284;50.918;7.092;2023-07-08T07:07:57;26.30;37.30
81842;DHT22;71284;50.918;7.092;2023-07-08T07:10:24;26.40;36.50
81842;DHT22;71284;50.918;7.092;2023-07-08T07:12:50;26.50;36.10
81842;DHT22;71284;50.918;7.092;2023-07-08T07:15:17;26.50;36.60
81842;DHT22;71284;50.918;7.092;2023-07-08T07:17:43;26.80;36.10
81842;DHT22;71284;50.918;7.092;2023-07-08T07:20:10;26.90;35.10
81842;DHT22;71284;50.918;7.092;2023-07-08T07:22:37;27.10;35.80
81842;DHT22;71284;50.918;7.092;2023-07-08T07:25:04;27.20;34.70
81842;DHT22;71284;50.918;7.092;2023-07-08T07:27:31;27.10;34.70
81842;DHT22;71284;50.918;7.092;2023-07-08T07:29:57;27.10;34.80
81842;DHT22;71284;50.918;7.092;2023-07-08T07:32:25;27.20;35.00
81842;DHT22;71284;50.918;7.092;2023-07-08T07:34:51;27.30;34.60
81842;DHT22;71284;50.918;7.092;2023-07-08T07:37:19;27.30;34.50
81842;DHT22;71284;50.918;7.092;2023-07-08T07:39:44;27.30;34.50
81842;DHT22;71284;50.918;7.092;2023-07-08T07:42:12;27.30;34.80
81842;DHT22;71284;50.918;7.092;2023-07-08T07:44:37;27.40;35.30
81842;DHT22;71284;50.918;7.092;2023-07-08T07:47:07;27.50;35.80
81842;DHT22;71284;50.918;7.092;2023-07-08T07:49:33;27.50;35.10
81842;DHT22;71284;50.918;7.092;2023-07-08T07:51:59;27.60;36.30
81842;DHT22;71284;50.918;7.092;2023-07-08T07:54:26;27.70;34.70
81842;DHT22;71284;50.918;7.092;2023-07-08T07:56:52;27.80;34.50
81842;DHT22;71284;50.918;7.092;2023-07-08T07:59:19;28.00;34.20
81842;DHT22;71284;50.918;7.092;2023-07-08T08:01:46;28.20;34.50
81842;DHT22;71284;50.918;7.092;2023-07-08T08:04:12;28.40;34.90
81842;DHT22;71284;50.918;7.092;2023-07-08T08:06:39;28.50;33.30
81842;DHT22;71284;50.918;7.092;2023-07-08T08:09:06;28.50;32.60
81842;DHT22;71284;50.918;7.092;2023-07-08T08:11:32;28.50;33.80
81842;DHT22;71284;50.918;7.092;2023-07-08T08:13:59;28.60;31.70
81842;DHT22;71284;50.918;7.092;2023-07-08T08:16:25;28.60;31.20
81842;DHT22;71284;50.918;7.092;2023-07-08T08:18:52;28.70;32.10
81842;DHT22;71284;50.918;7.092;2023-07-08T08:21:18;28.90;31.10
81842;DHT22;71284;50.918;7.092;2023-07-08T08:23:45;28.80;31.30
81842;DHT22;71284;50.918;7.092;2023-07-08T08:26:11;29.00;31.20
81842;DHT22;71284;50.918;7.092;2023-07-08T08:28:39;29.10;31.80
81842;DHT22;71284;50.918;7.092;2023-07-08T08:31:05;29.20;32.10
81842;DHT22;71284;50.918;7.092;2023-07-08T08:33:31;29.40;31.20
81842;DHT22;71284;50.918;7.092;2023-07-08T08:35:58;29.60;31.10
81842;DHT22;71284;50.918;7.092;2023-07-08T08:38:24;29.70;31.00
81842;DHT22;71284;50.918;7.092;2023-07-08T08:40:51;29.80;30.80
81842;DHT22;71284;50.918;7.092;2023-07-08T08:43:20;30.00;31.30
81842;DHT22;71284;50.918;7.092;2023-07-08T08:45:58;30.10;31.20
81842;DHT22;71284;50.918;7.092;2023-07-08T08:48:22;30.10;32.00
81842;DHT22;71284;50.918;7.092;2023-07-08T08:50:55;30.00;31.20
81842;DHT22;71284;50.918;7.092;2023-07-08T08:53:22;30.00;31.10
81842;DHT22;71284;50.918;7.092;2023-07-08T08:55:57;30.10;31.70
81842;DHT22;71284;50.918;7.092;2023-07-08T08:58:30;30.20;31.20
81842;DHT22;71284;50.918;7.092;2023-07-08T09:00:56;30.30;31.50
81842;DHT22;71284;50.918;7.092;2023-07-08T09:03:42;30.30;31.90
81842;DHT22;71284;50.918;7.092;2023-07-08T09:06:13;30.40;30.50
81842;DHT22;71284;50.918;7.092;2023-07-08T09:08:38;30.20;31.20
81842;DHT22;71284;50.918;7.092;2023-07-08T09:11:10;30.40;31.10
81842;DHT22;71284;50.918;7.092;2023-07-08T09:13:35;30.50;31.20
81842;DHT22;71284;50.918;7.092;2023-07-08T09:16:06;30.70;30.90
81842;DHT22;71284;50.918;7.092;2023-07-08T09:18:33;30.90;31.40
81842;DHT22;71284;50.918;7.092;2023-07-08T09:20:58;31.00;30.80
81842;DHT22;71284;50.918;7.092;2023-07-08T09:23:26;31.10;30.80
81842;DHT22;71284;50.918;7.092;2023-07-08T09:26:03;31.30;30.50
81842;DHT22;71284;50.918;7.092;2023-07-08T09:28:37;31.30;31.30
81842;DHT22;71284;50.918;7.092;2023-07-08T09:31:03;31.40;32.10
81842;DHT22;71284;50.918;7.092;2023-07-08T09:33:29;31.40;30.60
81842;DHT22;71284;50.918;7.092;2023-07-08T09:35:56;31.50;29.40
81842;DHT22;71284;50.918;7.092;2023-07-08T09:38:22;31.70;29.30
81842;DHT22;71284;50.918;7.092;2023-07-08T09:40:51;31.80;29.30
81842;DHT22;71284;50.918;7.092;2023-07-08T09:43:34;31.70;29.30
81842;DHT22;71284;50.918;7.092;2023-07-08T09:46:00;31.80;29.50
81842;DHT22;71284;50.918;7.092;2023-07-08T09:48:27;32.00;30.00
81842;DHT22;71284;50.918;7.092;2023-07-08T09:50:54;31.90;29.30
81842;DHT22;71284;50.918;7.092;2023-07-08T09:53:19;32.00;29.30
81842;DHT22;71284;50.918;7.092;2023-07-08T09:55:46;32.20;29.20
81842;DHT22;71284;50.918;7.092;2023-07-08T09:58:15;32.30;29.40
81842;DHT22;71284;50.918;7.092;2023-07-08T10:00:41;32.60;29.10
81842;DHT22;71284;50.918;7.092;2023-07-08T10:03:12;32.80;29.40
81842;DHT22;71284;50.918;7.092;2023-07-08T10:05:37;33.00;29.00
81842;DHT22;71284;50.918;7.092;2023-07-08T10:08:04;33.00;28.80
81842;DHT22;71284;50.918;7.092;2023-07-08T10:10:32;33.10;28.00
81842;DHT22;71284;50.918;7.092;2023-07-08T10:13:00;33.10;28.50
81842;DHT22;71284;50.918;7.092;2023-07-08T10:15:29;33.30;28.50
81842;DHT22;71284;50.918;7.092;2023-07-08T10:17:53;33.20;28.40
81842;DHT22;71284;50.918;7.092;2023-07-08T10:20:20;33.20;27.60
81842;DHT22;71284;50.918;7.092;2023-07-08T10:22:54;33.40;27.90
81842;DHT22;71284;50.918;7.092;2023-07-08T10:25:34;33.40;27.30
81842;DHT22;71284;50.918;7.092;2023-07-08T10:28:03;33.50;27.00
81842;DHT22;71284;50.918;7.092;2023-07-08T10:30:28;33.30;27.20
81842;DHT22;71284;50.918;7.092;2023-07-08T10:35:30;33.50;26.90
81842;DHT22;71284;50.918;7.092;2023-07-08T10:38:18;33.20;27.00
81842;DHT22;71284;50.918;7.092;2023-07-08T10:40:48;33.20;27.50
81842;DHT22;71284;50.918;7.092;2023-07-08T10:43:37;33.20;27.40
81842;DHT22;71284;50.918;7.092;2023-07-08T10:46:06;33.40;27.50
81842;DHT22;71284;50.918;7.092;2023-07-08T10:51:12;33.80;26.70
81842;DHT22;71284;50.918;7.092;2023-07-08T10:53:41;33.80;26.50
81842;DHT22;71284;50.918;7.092;2023-07-08T10:56:10;33.90;26.50
81842;DHT22;71284;50.918;7.092;2023-07-08T10:59:02;34.10;26.20
81842;DHT22;71284;50.918;7.092;2023-07-08T11:01:44;34.30;26.20
81842;DHT22;71284;50.918;7.092;2023-07-08T11:04:13;34.50;26.20
81842;DHT22;71284;50.918;7.092;2023-07-08T11:06:45;34.40;25.60
81842;DHT22;71284;50.918;7.092;2023-07-08T11:09:11;34.30;26.00
81842;DHT22;71284;50.918;7.092;2023-07-08T11:11:39;34.70;25.50
81842;DHT22;71284;50.918;7.092;2023-07-08T11:14:17;35.90;24.60
81842;DHT22;71284;50.918;7.092;2023-07-08T11:16:47;37.30;23.50
81842;DHT22;71284;50.918;7.092;2023-07-08T11:19:18;37.80;22.70
81842;DHT22;71284;50.918;7.092;2023-07-08T11:21:47;38.10;23.60
81842;DHT22;71284;50.918;7.092;2023-07-08T11:24:37;37.60;22.70
81842;DHT22;71284;50.918;7.092;2023-07-08T11:27:05;37.10;23.30
81842;DHT22;71284;50.918;7.092;2023-07-08T11:29:46;36.40;23.00
81842;DHT22;71284;50.918;7.092;2023-07-08T11:32:13;36.50;23.30
81842;DHT22;71284;50.918;7.092;2023-07-08T11:34:38;36.50;23.90
81842;DHT22;71284;50.918;7.092;2023-07-08T11:37:05;36.10;24.00
81842;DHT22;71284;50.918;7.092;2023-07-08T11:39:33;36.00;24.10
81842;DHT22;71284;50.918;7.092;2023-07-08T11:42:17;36.00;23.90
81842;DHT22;71284;50.918;7.092;2023-07-08T11:44:43;35.90;24.30
81842;DHT22;71284;50.918;7.092;2023-07-08T11:47:13;35.70;25.50
81842;DHT22;71284;50.918;7.092;2023-07-08T11:49:37;35.70;23.80
81842;DHT22;71284;50.918;7.092;2023-07-08T11:52:04;35.40;24.40
81842;DHT22;71284;50.918;7.092;2023-07-08T11:54:31;35.30;25.10
81842;DHT22;71284;50.918;7.092;2023-07-08T11:56:59;35.10;25.30
81842;DHT22;71284;50.918;7.092;2023-07-08T11:59:26;35.30;25.80
81842;DHT22;71284;50.918;7.092;2023-07-08T12:01:53;35.30;24.80
81842;DHT22;71284;50.918;7.092;2023-07-08T12:04:25;35.40;24.40
81842;DHT22;71284;50.918;7.092;2023-07-08T12:06:54;35.70;23.90
81842;DHT22;71284;50.918;7.092;2023-07-08T12:09:26;35.90;23.70
81842;DHT22;71284;50.918;7.092;2023-07-08T12:11:59;36.50;22.90
81842;DHT22;71284;50.918;7.092;2023-07-08T12:14:20;37.00;23.20
81842;DHT22;71284;50.918;7.092;2023-07-08T12:16:47;36.60;22.90
81842;DHT22;71284;50.918;7.092;2023-07-08T12:19:16;37.10;23.60
81842;DHT22;71284;50.918;7.092;2023-07-08T12:21:40;37.60;22.70
81842;DHT22;71284;50.918;7.092;2023-07-08T12:24:07;37.30;22.80
81842;DHT22;71284;50.918;7.092;2023-07-08T12:26:33;37.30;23.00
81842;DHT22;71284;50.918;7.092;2023-07-08T12:29:00;37.10;23.00
81842;DHT22;71284;50.918;7.092;2023-07-08T12:31:26;36.70;23.10
81842;DHT22;71284;50.918;7.092;2023-07-08T12:33:53;36.90;23.50
81842;DHT22;71284;50.918;7.092;2023-07-08T12:36:22;37.10;23.50
81842;DHT22;71284;50.918;7.092;2023-07-08T12:38:48;37.10;23.10
81842;DHT22;71284;50.918;7.092;2023-07-08T12:41:16;37.20;23.60
81842;DHT22;71284;50.918;7.092;2023-07-08T12:43:41;37.40;23.90
81842;DHT22;71284;50.918;7.092;2023-07-08T12:46:10;37.10;23.80
81842;DHT22;71284;50.918;7.092;2023-07-08T12:48:37;37.10;23.90
81842;DHT22;71284;50.918;7.092;2023-07-08T12:51:04;37.60;23.40
81842;DHT22;71284;50.918;7.092;2023-07-08T12:53:30;38.60;23.40
81842;DHT22;71284;50.918;7.092;2023-07-08T12:55:57;39.00;22.70
81842;DHT22;71284;50.918;7.092;2023-07-08T12:58:25;39.10;22.80
81842;DHT22;71284;50.918;7.092;2023-07-08T13:00:51;38.50;22.30
81842;DHT22;71284;50.918;7.092;2023-07-08T13:03:19;38.10;23.40
81842;DHT22;71284;50.918;7.092;2023-07-08T13:05:45;37.80;23.90
81842;DHT22;71284;50.918;7.092;2023-07-08T13:08:14;37.60;23.80
81842;DHT22;71284;50.918;7.092;2023-07-08T13:10:40;37.60;23.90
81842;DHT22;71284;50.918;7.092;2023-07-08T13:13:08;37.60;23.10
81842;DHT22;71284;50.918;7.092;2023-07-08T13:15:36;37.60;23.60
81842;DHT22;71284;50.918;7.092;2023-07-08T13:18:00;37.80;23.20
81842;DHT22;71284;50.918;7.092;2023-07-08T13:20:27;37.30;23.90
81842;DHT22;71284;50.918;7.092;2023-07-08T13:22:55;37.80;24.20
81842;DHT22;71284;50.918;7.092;2023-07-08T13:25:20;38.20;23.70
81842;DHT22;71284;50.918;7.092;2023-07-08T13:27:54;38.60;23.20
81842;DHT22;71284;50.918;7.092;2023-07-08T13:30:21;38.30;23.10
81842;DHT22;71284;50.918;7.092;2023-07-08T13:32:51;39.30;22.90
81842;DHT22;71284;50.918;7.092;2023-07-08T13:35:27;41.30;21.70
81842;DHT22;71284;50.918;7.092;2023-07-08T13:37:51;43.00;21.00
81842;DHT22;71284;50.918;7.092;2023-07-08T13:40:18;44.10;20.00
81842;DHT22;71284;50.918;7.092;2023-07-08T13:42:49;44.60;19.50
81842;DHT22;71284;50.918;7.092;2023-07-08T13:45:17;45.90;19.00
81842;DHT22;71284;50.918;7.092;2023-07-08T13:47:42;46.90;18.40
81842;DHT22;71284;50.918;7.092;2023-07-08T13:50:16;46.70;18.80
81842;DHT22;71284;50.918;7.092;2023-07-08T13:52:42;46.20;18.80
81842;DHT22;71284;50.918;7.092;2023-07-08T13:55:09;45.20;19.20
81842;DHT22;71284;50.918;7.092;2023-07-08T13:57:36;44.80;19.40
81842;DHT22;71284;50.918;7.092;2023-07-08T14:00:01;45.60;19.40
81842;DHT22;71284;50.918;7.092;2023-07-08T14:02:29;46.90;18.80
81842;DHT22;71284;50.918;7.092;2023-07-08T14:04:54;46.40;18.80
81842;DHT22;71284;50.918;7.092;2023-07-08T14:07:22;46.90;18.40
81842;DHT22;71284;50.918;7.092;2023-07-08T14:09:47;47.90;18.40
81842;DHT22;71284;50.918;7.092;2023-07-08T14:12:13;47.80;18.30
81842;DHT22;71284;50.918;7.092;2023-07-08T14:14:40;47.20;19.00
81842;DHT22;71284;50.918;7.092;2023-07-08T14:17:08;46.10;18.90
81842;DHT22;71284;50.918;7.092;2023-07-08T14:19:34;44.60;19.20
81842;DHT22;71284;50.918;7.092;2023-07-08T14:22:02;43.40;19.80
81842;DHT22;71284;50.918;7.092;2023-07-08T14:24:28;42.80;20.40
81842;DHT22;71284;50.918;7.092;2023-07-08T14:26:55;42.40;20.30
81842;DHT22;71284;50.918;7.092;2023-07-08T14:29:21;42.30;21.10
81842;DHT22;71284;50.918;7.092;2023-07-08T14:31:48;42.30;21.10
81842;DHT22;71284;50.918;7.092;2023-07-08T14:34:22;41.60;20.90
81842;DHT22;71284;50.918;7.092;2023-07-08T14:36:42;41.10;21.80
81842;DHT22;71284;50.918;7.092;2023-07-08T14:39:12;40.60;21.60
81842;DHT22;71284;50.918;7.092;2023-07-08T14:41:38;40.20;22.40
81842;DHT22;71284;50.918;7.092;2023-07-08T14:44:09;40.10;22.10
81842;DHT22;71284;50.918;7.092;2023-07-08T14:46:31;39.80;22.20
81842;DHT22;71284;50.918;7.092;2023-07-08T14:48:57;38.90;22.30
81842;DHT22;71284;50.918;7.092;2023-07-08T14:51:24;38.70;23.40
81842;DHT22;71284;50.918;7.092;2023-07-08T14:53:50;38.50;24.20
81842;DHT22;71284;50.918;7.092;2023-07-08T14:56:17;38.40;23.20
81842;DHT22;71284;50.918;7.092;2023-07-08T14:58:44;38.20;23.60
81842;DHT22;71284;50.918;7.092;2023-07-08T15:01:15;38.00;24.00
81842;DHT22;71284;50.918;7.092;2023-07-08T15:03:38;37.90;23.70
81842;DHT22;71284;50.918;7.092;2023-07-08T15:06:08;38.00;23.90
81842;DHT22;71284;50.918;7.092;2023-07-08T15:08:32;38.00;24.50
81842;DHT22;71284;50.918;7.092;2023-07-08T15:10:58;37.90;24.60
81842;DHT22;71284;50.918;7.092;2023-07-08T15:13:25;38.00;24.60
81842;DHT22;71284;50.918;7.092;2023-07-08T15:15:51;37.90;23.60
81842;DHT22;71284;50.918;7.092;2023-07-08T15:18:18;37.60;24.20
81842;DHT22;71284;50.918;7.092;2023-07-08T15:20:45;37.60;24.40
81842;DHT22;71284;50.918;7.092;2023-07-08T15:23:12;37.60;24.50
81842;DHT22;71284;50.918;7.092;2023-07-08T15:25:41;37.70;24.60
81842;DHT22;71284;50.918;7.092;2023-07-08T15:28:07;37.70;25.20
81842;DHT22;71284;50.918;7.092;2023-07-08T15:30:33;37.40;25.20
81842;DHT22;71284;50.918;7.092;2023-07-08T15:33:00;36.50;25.20
81842;DHT22;71284;50.918;7.092;2023-07-08T15:35:27;36.70;25.50
81842;DHT22;71284;50.918;7.092;2023-07-08T15:37:56;36.60;25.70